<?xml version="1.0" encoding="UTF-8" standalone="no" ?>
<gpx xmlns="http://www.topografix.com/GPX/1/1" xmlns:xsi="http://www.w3.org/2001/XMLSchema-instance" xsi:schemaLocation="http://www.topografix.com/GPX/1/1 http://www.topografix.com/GPX/1/1/gpx.xsd" version="1.1" creator="VisuGPX - https://www.visugpx.com">
  <metadata>
    <name>Forêt st sauveur le vicomte/mont de Besneville</name>
  </metadata>
  <wpt lat="49.37592" lon="-1.59337">
    <ele>47</ele>
    <name><![CDATA[ForÃªt st sauveur le vicomte]]></name>
  </wpt>
  <trk>
    <name><![CDATA[ForÃªt st sauveur le vicomte]]></name>
    <trkseg>
      <trkpt lat="49.37592" lon="-1.59337">
        <ele>47</ele>
        <time>2021-12-08T18:16:52Z</time>
      </trkpt>
      <trkpt lat="49.37796" lon="-1.59337">
        <ele>52.6</ele>
        <time>2021-12-08T18:17:01Z</time>
      </trkpt>
      <trkpt lat="49.37718" lon="-1.59732">
        <ele>48.9</ele>
        <time>2021-12-08T18:17:17Z</time>
      </trkpt>
      <trkpt lat="49.37903" lon="-1.59926">
        <ele>56.5</ele>
        <time>2021-12-08T18:17:35Z</time>
      </trkpt>
      <trkpt lat="49.38048" lon="-1.60184">
        <ele>63.7</ele>
        <time>2021-12-08T18:17:47Z</time>
      </trkpt>
      <trkpt lat="49.37942" lon="-1.60291">
        <ele>68.5</ele>
        <time>2021-12-08T18:17:49Z</time>
      </trkpt>
      <trkpt lat="49.37827" lon="-1.60334">
        <ele>73</ele>
        <time>2021-12-08T18:17:58Z</time>
      </trkpt>
      <trkpt lat="49.37754" lon="-1.60329">
        <ele>73.7</ele>
        <time>2021-12-08T18:18:11Z</time>
      </trkpt>
      <trkpt lat="49.37679" lon="-1.60287">
        <ele>73.4</ele>
        <time>2021-12-08T18:18:21Z</time>
      </trkpt>
      <trkpt lat="49.37573" lon="-1.60257">
        <ele>73.2</ele>
        <time>2021-12-08T18:18:36Z</time>
      </trkpt>
      <trkpt lat="49.37497" lon="-1.60252">
        <ele>71.1</ele>
        <time>2021-12-08T18:18:45Z</time>
      </trkpt>
      <trkpt lat="49.37394" lon="-1.60317">
        <ele>67</ele>
        <time>2021-12-08T18:18:54Z</time>
      </trkpt>
      <trkpt lat="49.37414" lon="-1.60454">
        <ele>76</ele>
        <time>2021-12-08T18:19:04Z</time>
      </trkpt>
      <trkpt lat="49.37369" lon="-1.60956">
        <ele>67.7</ele>
        <time>2021-12-08T18:19:11Z</time>
      </trkpt>
      <trkpt lat="49.37333" lon="-1.60926">
        <ele>63.2</ele>
        <time>2021-12-08T18:19:28Z</time>
      </trkpt>
      <trkpt lat="49.37212" lon="-1.609">
        <ele>50.3</ele>
        <time>2021-12-08T18:19:31Z</time>
      </trkpt>
      <trkpt lat="49.37103" lon="-1.60866">
        <ele>44.3</ele>
        <time>2021-12-08T18:19:42Z</time>
      </trkpt>
      <trkpt lat="49.37092" lon="-1.60969">
        <ele>44.4</ele>
        <time>2021-12-08T18:19:56Z</time>
      </trkpt>
      <trkpt lat="49.37117" lon="-1.61093">
        <ele>44.7</ele>
        <time>2021-12-08T18:20:09Z</time>
      </trkpt>
      <trkpt lat="49.37123" lon="-1.61179">
        <ele>45.8</ele>
        <time>2021-12-08T18:20:17Z</time>
      </trkpt>
      <trkpt lat="49.37103" lon="-1.61269">
        <ele>45.2</ele>
        <time>2021-12-08T18:20:19Z</time>
      </trkpt>
      <trkpt lat="49.3724" lon="-1.61325">
        <ele>52.5</ele>
        <time>2021-12-08T18:20:25Z</time>
      </trkpt>
      <trkpt lat="49.37349" lon="-1.61351">
        <ele>63.6</ele>
        <time>2021-12-08T18:20:40Z</time>
      </trkpt>
      <trkpt lat="49.37366" lon="-1.61334">
        <ele>65.7</ele>
        <time>2021-12-08T18:20:46Z</time>
      </trkpt>
      <trkpt lat="49.37422" lon="-1.61334">
        <ele>72.7</ele>
        <time>2021-12-08T18:21:05Z</time>
      </trkpt>
      <trkpt lat="49.37481" lon="-1.61282">
        <ele>81.7</ele>
        <time>2021-12-08T18:21:20Z</time>
      </trkpt>
      <trkpt lat="49.37511" lon="-1.61304">
        <ele>88.5</ele>
        <time>2021-12-08T18:21:24Z</time>
      </trkpt>
      <trkpt lat="49.37578" lon="-1.61329">
        <ele>99.1</ele>
        <time>2021-12-08T18:21:41Z</time>
      </trkpt>
      <trkpt lat="49.37609" lon="-1.61205">
        <ele>97.7</ele>
        <time>2021-12-08T18:21:52Z</time>
      </trkpt>
      <trkpt lat="49.37637" lon="-1.61171">
        <ele>102.7</ele>
        <time>2021-12-08T18:22:03Z</time>
      </trkpt>
      <trkpt lat="49.37629" lon="-1.61119">
        <ele>102.8</ele>
        <time>2021-12-08T18:22:05Z</time>
      </trkpt>
      <trkpt lat="49.37701" lon="-1.60935">
        <ele>115.3</ele>
        <time>2021-12-08T18:22:20Z</time>
      </trkpt>
      <trkpt lat="49.37875" lon="-1.60935">
        <ele>113</ele>
        <time>2021-12-08T18:22:39Z</time>
      </trkpt>
      <trkpt lat="49.37967" lon="-1.61008">
        <ele>109.4</ele>
        <time>2021-12-08T18:22:44Z</time>
      </trkpt>
      <trkpt lat="49.38179" lon="-1.61192">
        <ele>89.5</ele>
        <time>2021-12-08T18:22:59Z</time>
      </trkpt>
      <trkpt lat="49.38394" lon="-1.61394">
        <ele>80.9</ele>
        <time>2021-12-08T18:23:01Z</time>
      </trkpt>
      <trkpt lat="49.38514" lon="-1.61462">
        <ele>74.1</ele>
        <time>2021-12-08T18:23:21Z</time>
      </trkpt>
      <trkpt lat="49.38688" lon="-1.61603">
        <ele>62.4</ele>
        <time>2021-12-08T18:23:32Z</time>
      </trkpt>
      <trkpt lat="49.38795" lon="-1.61242">
        <ele>59.8</ele>
        <time>2021-12-08T18:23:41Z</time>
      </trkpt>
      <trkpt lat="49.38589" lon="-1.61056">
        <ele>63.8</ele>
        <time>2021-12-08T18:23:53Z</time>
      </trkpt>
      <trkpt lat="49.38619" lon="-1.60885">
        <ele>56.8</ele>
        <time>2021-12-08T18:24:11Z</time>
      </trkpt>
      <trkpt lat="49.38742" lon="-1.60915">
        <ele>58.9</ele>
        <time>2021-12-08T18:24:25Z</time>
      </trkpt>
      <trkpt lat="49.38893" lon="-1.60923">
        <ele>58</ele>
        <time>2021-12-08T18:24:37Z</time>
      </trkpt>
      <trkpt lat="49.38916" lon="-1.6082">
        <ele>58</ele>
        <time>2021-12-08T18:24:39Z</time>
      </trkpt>
      <trkpt lat="49.38913" lon="-1.60687">
        <ele>57.9</ele>
        <time>2021-12-08T18:24:53Z</time>
      </trkpt>
      <trkpt lat="49.38935" lon="-1.60558">
        <ele>57.7</ele>
        <time>2021-12-08T18:25:06Z</time>
      </trkpt>
      <trkpt lat="49.38949" lon="-1.60464">
        <ele>57.1</ele>
        <time>2021-12-08T18:25:18Z</time>
      </trkpt>
      <trkpt lat="49.38902" lon="-1.60339">
        <ele>55</ele>
        <time>2021-12-08T18:25:36Z</time>
      </trkpt>
      <trkpt lat="49.3891" lon="-1.60258">
        <ele>54.8</ele>
        <time>2021-12-08T18:25:50Z</time>
      </trkpt>
      <trkpt lat="49.38776" lon="-1.60215">
        <ele>50.9</ele>
        <time>2021-12-08T18:25:58Z</time>
      </trkpt>
      <trkpt lat="49.38773" lon="-1.60022">
        <ele>44.8</ele>
        <time>2021-12-08T18:26:00Z</time>
      </trkpt>
      <trkpt lat="49.38737" lon="-1.59958">
        <ele>44.5</ele>
        <time>2021-12-08T18:26:03Z</time>
      </trkpt>
      <trkpt lat="49.38793" lon="-1.59794">
        <ele>45.5</ele>
        <time>2021-12-08T18:26:18Z</time>
      </trkpt>
      <trkpt lat="49.38851" lon="-1.5979">
        <ele>49.3</ele>
        <time>2021-12-08T18:26:38Z</time>
      </trkpt>
      <trkpt lat="49.38849" lon="-1.59661">
        <ele>49.5</ele>
        <time>2021-12-08T18:26:57Z</time>
      </trkpt>
      <trkpt lat="49.38832" lon="-1.59361">
        <ele>50.9</ele>
        <time>2021-12-08T18:27:03Z</time>
      </trkpt>
      <trkpt lat="49.38798" lon="-1.59164">
        <ele>47.8</ele>
        <time>2021-12-08T18:27:16Z</time>
      </trkpt>
      <trkpt lat="49.38759" lon="-1.59116">
        <ele>46.5</ele>
        <time>2021-12-08T18:27:19Z</time>
      </trkpt>
      <trkpt lat="49.38684" lon="-1.59086">
        <ele>40.6</ele>
        <time>2021-12-08T18:27:27Z</time>
      </trkpt>
      <trkpt lat="49.38552" lon="-1.59091">
        <ele>45.8</ele>
        <time>2021-12-08T18:27:38Z</time>
      </trkpt>
      <trkpt lat="49.3841" lon="-1.59078">
        <ele>46.7</ele>
        <time>2021-12-08T18:27:57Z</time>
      </trkpt>
      <trkpt lat="49.38317" lon="-1.59047">
        <ele>57.8</ele>
        <time>2021-12-08T18:28:12Z</time>
      </trkpt>
      <trkpt lat="49.38255" lon="-1.58996">
        <ele>60.7</ele>
        <time>2021-12-08T18:28:21Z</time>
      </trkpt>
      <trkpt lat="49.38121" lon="-1.58914">
        <ele>60.3</ele>
        <time>2021-12-08T18:28:37Z</time>
      </trkpt>
      <trkpt lat="49.38199" lon="-1.58773">
        <ele>56.5</ele>
        <time>2021-12-08T18:28:57Z</time>
      </trkpt>
      <trkpt lat="49.3832" lon="-1.58537">
        <ele>41.5</ele>
        <time>2021-12-08T18:29:02Z</time>
      </trkpt>
      <trkpt lat="49.38384" lon="-1.58417">
        <ele>35.2</ele>
        <time>2021-12-08T18:29:05Z</time>
      </trkpt>
      <trkpt lat="49.38272" lon="-1.58391">
        <ele>40.2</ele>
        <time>2021-12-08T18:29:19Z</time>
      </trkpt>
      <trkpt lat="49.38191" lon="-1.58296">
        <ele>43</ele>
        <time>2021-12-08T18:29:34Z</time>
      </trkpt>
      <trkpt lat="49.38141" lon="-1.58344">
        <ele>42.6</ele>
        <time>2021-12-08T18:29:50Z</time>
      </trkpt>
      <trkpt lat="49.38085" lon="-1.58425">
        <ele>43.7</ele>
        <time>2021-12-08T18:30:09Z</time>
      </trkpt>
      <trkpt lat="49.38021" lon="-1.58459">
        <ele>45</ele>
        <time>2021-12-08T18:30:17Z</time>
      </trkpt>
      <trkpt lat="49.37939" lon="-1.58488">
        <ele>46.2</ele>
        <time>2021-12-08T18:30:29Z</time>
      </trkpt>
      <trkpt lat="49.3785" lon="-1.58509">
        <ele>50</ele>
        <time>2021-12-08T18:30:44Z</time>
      </trkpt>
      <trkpt lat="49.37791" lon="-1.58466">
        <ele>52.9</ele>
        <time>2021-12-08T18:31:04Z</time>
      </trkpt>
      <trkpt lat="49.37749" lon="-1.58436">
        <ele>55.1</ele>
        <time>2021-12-08T18:31:06Z</time>
      </trkpt>
      <trkpt lat="49.37727" lon="-1.58582">
        <ele>58.6</ele>
        <time>2021-12-08T18:31:15Z</time>
      </trkpt>
      <trkpt lat="49.37718" lon="-1.58694">
        <ele>59.3</ele>
        <time>2021-12-08T18:31:31Z</time>
      </trkpt>
      <trkpt lat="49.37676" lon="-1.58904">
        <ele>56</ele>
        <time>2021-12-08T18:31:38Z</time>
      </trkpt>
      <trkpt lat="49.3783" lon="-1.58994">
        <ele>54.2</ele>
        <time>2021-12-08T18:31:55Z</time>
      </trkpt>
      <trkpt lat="49.38012" lon="-1.59093">
        <ele>59.3</ele>
        <time>2021-12-08T18:32:06Z</time>
      </trkpt>
      <trkpt lat="49.37905" lon="-1.59346">
        <ele>53.8</ele>
        <time>2021-12-08T18:32:15Z</time>
      </trkpt>
      <trkpt lat="49.37587" lon="-1.59359">
        <ele>47</ele>
        <time>2021-12-08T18:32:17Z</time>
      </trkpt>
    </trkseg>
  </trk>
</gpx>